Time;durP1;ratioP1;P1;durP2;ratioP2;P2;SDS_P1;SDS_P2;PMS_P1;PMS_P2;Temp;Humidity;BMP_temperature;BMP_pressure;BME280_temperature;BME280_humidity;BME280_pressure;Samples;Min_cycle;Max_cycle;Signal;HPM_P1;HPM_P2
2023/05/20 00:01:58;;;;;;;1.98;0.80;;;;;;;8.58;100.00;102806.47;4950852;29;20192;-49
2023/05/20 00:04:23;;;;;;;2.40;1.00;;;;;;;8.39;100.00;102802.81;4948870;29;20570;-49
2023/05/20 00:06:49;;;;;;;3.20;1.10;;;;;;;8.27;100.00;102802.81;4948673;29;20199;-48
2023/05/20 00:09:16;;;;;;;2.63;1.23;;;;;;;8.08;100.00;102798.28;4944426;29;20249;-46
2023/05/20 00:11:41;;;;;;;3.47;1.20;;;;;;;7.96;100.00;102800.03;4943372;29;20191;-48
2023/05/20 00:14:07;;;;;;;1.30;1.20;;;;;;;8.10;100.00;102797.41;4950359;28;20217;-48
2023/05/20 00:16:33;;;;;;;1.17;1.00;;;;;;;8.09;100.00;102805.41;4947141;29;20214;-48
2023/05/20 00:18:58;;;;;;;1.67;1.02;;;;;;;8.00;100.00;102804.50;4941815;29;20245;-49
2023/05/20 00:21:24;;;;;;;1.65;1.27;;;;;;;8.08;100.00;102812.53;4949617;29;20650;-47
2023/05/20 00:23:49;;;;;;;2.03;1.00;;;;;;;7.94;100.00;102803.59;4934140;29;20838;-48
2023/05/20 00:26:15;;;;;;;4.00;1.25;;;;;;;7.84;100.00;102798.19;4950101;29;20572;-50
2023/05/20 00:28:43;;;;;;;1.42;1.00;;;;;;;7.83;100.00;102801.75;4932867;29;20219;-49
2023/05/20 00:31:08;;;;;;;1.65;1.00;;;;;;;7.84;100.00;102797.28;4946357;29;20318;-52
2023/05/20 00:33:35;;;;;;;1.40;1.13;;;;;;;7.99;100.00;102813.38;4947842;28;20230;-51
2023/05/20 00:36:01;;;;;;;1.38;0.85;;;;;;;8.04;100.00;102805.38;4949073;29;20662;-53
2023/05/20 00:38:26;;;;;;;1.45;0.95;;;;;;;8.07;100.00;102799.16;4925117;29;20201;-48
2023/05/20 00:40:52;;;;;;;3.83;0.93;;;;;;;8.02;100.00;102802.72;4948165;29;20190;-49
2023/05/20 00:43:19;;;;;;;2.80;1.10;;;;;;;8.03;100.00;102792.94;4934410;29;20310;-51
2023/05/20 00:45:46;;;;;;;2.47;1.00;;;;;;;8.00;100.00;102807.16;4950550;29;20214;-48
2023/05/20 00:48:12;;;;;;;3.60;1.10;;;;;;;7.94;100.00;102792.91;4934790;29;20234;-51
2023/05/20 00:50:38;;;;;;;1.42;0.98;;;;;;;7.91;100.00;102798.22;4945982;29;20238;-51
2023/05/20 00:53:05;;;;;;;2.97;1.00;;;;;;;7.72;100.00;102792.81;4946033;29;20202;-53
2023/05/20 00:55:31;;;;;;;2.72;0.98;;;;;;;7.58;100.00;102794.50;4931009;29;20187;-48
2023/05/20 00:57:56;;;;;;;2.28;1.10;;;;;;;7.47;100.00;102785.53;4943795;29;20202;-48
2023/05/20 01:00:22;;;;;;;2.83;1.08;;;;;;;7.47;100.00;102802.41;4933405;29;20646;-52
2023/05/20 01:02:48;;;;;;;2.65;1.42;;;;;;;7.59;100.00;102794.50;4932539;29;20193;-51
2023/05/20 01:05:13;;;;;;;1.63;0.98;;;;;;;7.58;100.00;102797.16;4945766;28;20222;-48
2023/05/20 01:07:40;;;;;;;1.05;0.73;;;;;;;7.58;100.00;102799.81;4949473;29;20202;-48
2023/05/20 01:10:06;;;;;;;1.15;0.90;;;;;;;7.58;100.00;102794.50;4946932;29;20191;-48
2023/05/20 01:12:55;;;;;;;3.30;1.08;;;;;;;7.40;100.00;102788.16;4922266;29;20282;-46
2023/05/20 01:15:23;;;;;;;0.93;0.88;;;;;;;7.51;100.00;102796.22;4926357;29;20191;-46
2023/05/20 01:17:56;;;;;;;1.70;1.00;;;;;;;7.42;100.00;102782.84;4952382;29;20178;-47
2023/05/20 01:20:23;;;;;;;2.15;0.80;;;;;;;7.39;100.00;102782.81;4935369;29;20682;-47
2023/05/20 01:22:53;;;;;;;1.42;1.00;;;;;;;7.31;100.00;102789.88;4934375;29;20190;-47
2023/05/20 01:25:19;;;;;;;1.35;0.90;;;;;;;7.31;100.00;102790.78;4927673;29;20222;-45
2023/05/20 01:27:47;;;;;;;3.03;1.00;;;;;;;7.38;100.00;102786.38;4935301;29;20650;-45
2023/05/20 01:30:14;;;;;;;1.85;1.08;;;;;;;7.40;100.00;102784.59;4932160;29;20286;-47
2023/05/20 01:32:49;;;;;;;1.13;0.90;;;;;;;7.41;100.00;102778.38;4950236;29;20191;-47
2023/05/20 01:35:15;;;;;;;2.70;0.80;;;;;;;7.31;100.00;102776.56;4952244;28;20258;-46
2023/05/20 01:37:42;;;;;;;1.77;0.90;;;;;;;7.37;100.00;102789.94;4951367;29;20767;-47
2023/05/20 01:40:10;;;;;;;1.73;1.10;;;;;;;7.34;100.00;102781.91;4952419;29;20198;-47
2023/05/20 01:42:37;;;;;;;2.55;0.98;;;;;;;7.17;100.00;102781.75;4953176;28;20186;-46
2023/05/20 01:45:04;;;;;;;1.10;0.88;;;;;;;7.08;100.00;102787.91;4940779;28;20306;-48
2023/05/20 01:47:30;;;;;;;1.25;0.95;;;;;;;7.12;100.00;102772.84;4950381;29;20296;-49
2023/05/20 01:49:55;;;;;;;1.33;0.90;;;;;;;7.14;100.00;102784.41;4952058;29;20191;-49
2023/05/20 01:52:22;;;;;;;1.45;0.98;;;;;;;7.15;100.00;102780.84;4931757;29;20330;-47
2023/05/20 01:54:50;;;;;;;1.55;0.80;;;;;;;7.08;100.00;102779.03;4939623;29;20220;-48
2023/05/20 01:57:18;;;;;;;1.27;0.90;;;;;;;7.10;100.00;102782.59;4952243;29;20636;-49
2023/05/20 01:59:43;;;;;;;1.60;0.90;;;;;;;7.13;100.00;102774.66;4918639;29;20204;-47
2023/05/20 02:02:10;;;;;;;2.53;1.00;;;;;;;7.13;100.00;102775.53;4934781;29;20190;-49
2023/05/20 02:04:35;;;;;;;2.10;1.40;;;;;;;7.06;100.00;102772.81;4951847;29;20203;-46
2023/05/20 02:07:01;;;;;;;2.40;1.00;;;;;;;7.07;100.00;102775.50;4967167;28;20174;-49
2023/05/20 02:09:27;;;;;;;3.38;0.90;;;;;;;7.07;100.00;102770.16;4966758;28;20774;-49
2023/05/20 02:11:53;;;;;;;1.52;0.80;;;;;;;7.10;100.00;102771.94;4946789;29;20179;-46
2023/05/20 02:14:18;;;;;;;1.48;0.73;;;;;;;7.07;100.00;102763.94;4921937;29;20640;-48
2023/05/20 02:16:45;;;;;;;2.97;0.90;;;;;;;7.00;100.00;102766.56;4933752;29;20561;-47
2023/05/20 02:19:12;;;;;;;2.20;0.88;;;;;;;7.00;100.00;102758.56;4950269;29;20639;-46
2023/05/20 02:21:41;;;;;;;1.67;1.05;;;;;;;6.98;100.00;102759.44;4939531;29;20195;-45
2023/05/20 02:24:07;;;;;;;1.20;0.93;;;;;;;7.00;100.00;102763.00;4942974;28;20349;-47
2023/05/20 02:26:33;;;;;;;1.25;1.00;;;;;;;6.97;100.00;102758.50;4934822;29;20215;-47
2023/05/20 02:28:59;;;;;;;1.13;0.93;;;;;;;6.94;100.00;102766.50;4931619;29;20214;-50
2023/05/20 02:31:26;;;;;;;1.85;0.90;;;;;;;6.86;100.00;102754.88;4952092;29;20775;-50
2023/05/20 02:33:51;;;;;;;1.30;0.90;;;;;;;6.83;100.00;102759.31;4934530;29;20293;-49
2023/05/20 02:36:17;;;;;;;1.75;1.05;;;;;;;6.74;100.00;102765.44;4942229;29;20183;-46
2023/05/20 02:38:43;;;;;;;1.05;0.80;;;;;;;6.83;100.00;102765.53;4948800;29;20546;-48
2023/05/20 02:41:09;;;;;;;1.58;0.82;;;;;;;6.78;100.00;102767.28;4944539;28;20270;-47
2023/05/20 02:43:35;;;;;;;1.35;1.20;;;;;;;6.67;100.00;102772.50;4950322;28;20773;-49
2023/05/20 02:46:01;;;;;;;2.83;1.10;;;;;;;6.73;100.00;102761.00;4951825;28;20183;-49
2023/05/20 02:48:27;;;;;;;3.03;1.25;;;;;;;6.70;100.00;102767.19;4947219;29;20215;-47
2023/05/20 02:50:53;;;;;;;2.67;1.17;;;;;;;6.66;100.00;102765.38;4932680;29;20176;-47
2023/05/20 02:53:18;;;;;;;6.47;1.23;;;;;;;6.67;100.00;102775.16;4932622;29;20203;-49
2023/05/20 02:55:47;;;;;;;3.15;1.42;;;;;;;6.49;100.00;102759.88;4941844;29;20191;-46
2023/05/20 02:58:13;;;;;;;1.98;1.10;;;;;;;6.56;100.00;102764.41;4943198;29;20183;-46
2023/05/20 03:00:42;;;;;;;6.05;1.20;;;;;;;6.43;100.00;102758.91;4948800;29;20818;-47
2023/05/20 03:03:12;;;;;;;1.73;1.10;;;;;;;6.54;100.00;102776.81;4950185;28;20535;-45
2023/05/20 03:05:41;;;;;;;3.58;1.05;;;;;;;6.46;100.00;102770.50;4949685;29;20199;-47
2023/05/20 03:08:08;;;;;;;2.15;1.23;;;;;;;6.54;100.00;102774.16;4949801;29;20284;-47
2023/05/20 03:10:38;;;;;;;2.70;1.40;;;;;;;6.58;100.00;102765.31;4947755;28;20201;-48
2023/05/20 03:13:07;;;;;;;5.05;1.30;;;;;;;6.63;100.00;102768.00;4939777;29;20686;-48
2023/05/20 03:15:38;;;;;;;2.08;0.93;;;;;;;6.65;100.00;102766.25;4938494;29;20277;-49
2023/05/20 03:18:05;;;;;;;1.92;1.02;;;;;;;6.65;100.00;102774.25;4954498;28;20671;-50
2023/05/20 03:20:35;;;;;;;2.03;1.25;;;;;;;6.67;100.00;102763.59;4953266;29;20179;-47
2023/05/20 03:23:02;;;;;;;2.75;1.33;;;;;;;6.64;100.00;102756.47;4953293;28;20194;-45
2023/05/20 03:25:27;;;;;;;2.30;1.10;;;;;;;6.68;100.00;102762.72;4952914;29;20628;-48
2023/05/20 03:27:53;;;;;;;3.03;1.10;;;;;;;6.66;100.00;102764.47;4954481;28;20199;-47
2023/05/20 03:30:19;;;;;;;2.80;1.35;;;;;;;6.68;100.00;102763.63;4952973;29;20190;-46
2023/05/20 03:32:46;;;;;;;2.17;1.00;;;;;;;6.82;100.00;102766.38;4951764;28;20218;-47
2023/05/20 03:35:12;;;;;;;3.28;1.30;;;;;;;6.88;100.00;102776.22;4935074;29;20245;-48
2023/05/20 03:37:38;;;;;;;5.20;1.30;;;;;;;6.92;100.00;102768.25;4933127;29;20190;-48
2023/05/20 03:40:05;;;;;;;2.25;1.25;;;;;;;7.05;100.00;102769.25;4937009;29;20229;-47
2023/05/20 03:42:33;;;;;;;2.28;1.30;;;;;;;7.13;100.00;102772.88;4935878;29;20197;-47
2023/05/20 03:44:59;;;;;;;2.00;1.60;;;;;;;7.20;100.00;102766.69;4938394;28;20218;-50
2023/05/20 03:47:26;;;;;;;1.42;0.90;;;;;;;7.24;100.00;102775.63;4928479;29;20202;-48
2023/05/20 03:49:52;;;;;;;2.25;1.05;;;;;;;7.34;100.00;102787.22;4951660;29;20202;-49
2023/05/20 03:52:18;;;;;;;2.17;1.27;;;;;;;7.32;100.00;102779.19;4930501;29;20679;-47
2023/05/20 03:54:43;;;;;;;3.05;1.42;;;;;;;7.32;100.00;102783.66;4939872;29;20683;-46
2023/05/20 03:57:09;;;;;;;3.90;1.20;;;;;;;7.32;100.00;102771.22;4936661;29;20193;-46
2023/05/20 03:59:36;;;;;;;2.38;1.13;;;;;;;7.37;100.00;102766.81;4933411;29;20176;-47
2023/05/20 04:02:02;;;;;;;2.00;1.08;;;;;;;7.50;100.00;102777.53;4950685;29;20286;-49
2023/05/20 04:04:28;;;;;;;5.00;1.23;;;;;;;7.53;100.00;102766.91;4917597;29;20595;-46
2023/05/20 04:06:55;;;;;;;3.67;1.20;;;;;;;7.56;100.00;102766.91;4945345;29;20693;-48
2023/05/20 04:09:21;;;;;;;2.28;1.23;;;;;;;7.60;100.00;102771.38;4934109;29;20294;-50
2023/05/20 04:11:46;;;;;;;2.78;1.02;;;;;;;7.64;100.00;102767.84;4933381;29;20196;-47
2023/05/20 04:14:12;;;;;;;1.52;0.95;;;;;;;7.63;100.00;102766.06;4950481;28;20284;-48
2023/05/20 04:16:38;;;;;;;2.83;0.85;;;;;;;7.68;100.00;102761.66;4936499;29;20190;-49
2023/05/20 04:19:03;;;;;;;2.75;1.15;;;;;;;7.74;100.00;102756.34;4953762;29;20701;-47
2023/05/20 04:21:30;;;;;;;2.63;1.08;;;;;;;7.81;100.00;102760.81;4942706;28;20668;-45
2023/05/20 04:23:56;;;;;;;2.10;0.80;;;;;;;7.90;100.00;102761.75;4932700;29;20204;-49
2023/05/20 04:26:21;;;;;;;3.03;0.93;;;;;;;7.81;100.00;102757.25;4940718;29;20192;-47
2023/05/20 04:28:49;;;;;;;3.55;1.25;;;;;;;7.90;100.00;102749.28;4947400;29;20214;-47
2023/05/20 04:31:14;;;;;;;4.13;1.60;;;;;;;7.88;100.00;102758.19;4931476;29;20190;-47
2023/05/20 04:33:42;;;;;;;1.23;0.90;;;;;;;7.89;100.00;102754.63;4932912;29;20246;-46
2023/05/20 04:36:10;;;;;;;4.35;1.15;;;;;;;7.89;100.00;102744.81;4950702;29;20186;-47
2023/05/20 04:38:38;;;;;;;4.53;1.30;;;;;;;7.96;100.00;102746.66;4933871;29;20202;-46
2023/05/20 04:41:05;;;;;;;1.40;1.02;;;;;;;8.04;100.00;102742.19;4951285;28;20186;-47
2023/05/20 04:43:32;;;;;;;4.72;1.10;;;;;;;8.17;100.00;102736.91;4945123;28;20234;-47
2023/05/20 04:46:00;;;;;;;4.45;1.10;;;;;;;8.31;100.00;102747.59;4944918;28;20190;-46
2023/05/20 04:48:26;;;;;;;3.22;1.10;;;;;;;8.49;100.00;102745.03;4951961;28;20309;-48
2023/05/20 04:50:53;;;;;;;2.92;1.25;;;;;;;8.68;100.00;102742.34;4950837;29;20190;-47
2023/05/20 04:53:20;;;;;;;1.35;1.10;;;;;;;8.86;100.00;102747.72;4945476;29;20689;-45
2023/05/20 04:55:47;;;;;;;1.63;1.08;;;;;;;8.99;100.00;102736.13;4945328;29;20182;-46
2023/05/20 04:58:16;;;;;;;1.23;1.10;;;;;;;9.19;100.00;102743.22;4955870;28;20297;-49
2023/05/20 05:00:44;;;;;;;2.38;1.10;;;;;;;9.38;100.00;102739.63;4944871;29;20829;-49
2023/05/20 05:03:11;;;;;;;4.20;1.17;;;;;;;9.53;100.00;102738.66;4949034;29;20631;-49
2023/05/20 05:05:39;;;;;;;2.25;1.00;;;;;;;9.75;100.00;102741.25;4947341;29;20273;-46
2023/05/20 05:08:05;;;;;;;3.88;1.42;;;;;;;9.69;100.00;102744.88;4945395;29;20194;-45
2023/05/20 05:10:34;;;;;;;3.85;1.38;;;;;;;9.68;100.00;102743.06;4949096;29;20197;-46
2023/05/20 05:13:00;;;;;;;3.20;1.45;;;;;;;9.87;100.00;102726.03;4947345;28;20672;-47
2023/05/20 05:15:26;;;;;;;1.30;1.17;;;;;;;9.89;100.00;102726.94;4961543;28;20182;-47
2023/05/20 05:17:51;;;;;;;6.38;1.58;;;;;;;9.63;100.00;102734.19;4941347;29;20178;-47
2023/05/20 05:20:17;;;;;;;5.47;1.52;;;;;;;9.77;100.00;102735.00;4950132;29;20226;-47
2023/05/20 05:22:43;;;;;;;3.17;1.25;;;;;;;9.85;100.00;102743.00;4950268;28;20278;-48
2023/05/20 05:25:10;;;;;;;2.97;1.20;;;;;;;9.89;100.00;102752.81;4949732;28;20753;-48
2023/05/20 05:27:36;;;;;;;3.92;1.20;;;;;;;9.98;100.00;102742.06;4943477;28;20215;-46
2023/05/20 05:30:03;;;;;;;4.70;1.50;;;;;;;10.07;100.00;102746.47;4948866;29;20200;-48
2023/05/20 05:32:29;;;;;;;2.78;1.58;;;;;;;10.04;100.00;102743.81;4949086;29;20210;-46
2023/05/20 05:34:55;;;;;;;3.50;1.42;;;;;;;10.18;100.00;102741.06;4948418;28;20211;-48
2023/05/20 05:37:21;;;;;;;2.38;1.15;;;;;;;10.14;100.00;102748.22;4933714;29;20201;-48
2023/05/20 05:39:47;;;;;;;5.88;1.73;;;;;;;10.24;100.00;102736.56;4944851;29;20216;-48
2023/05/20 05:42:13;;;;;;;2.85;1.20;;;;;;;10.38;100.00;102739.16;4948058;29;20202;-46
2023/05/20 05:44:38;;;;;;;3.25;1.40;;;;;;;10.56;100.00;102743.53;4930749;29;20298;-49
2023/05/20 05:47:06;;;;;;;3.05;1.33;;;;;;;10.61;100.00;102740.81;4944593;29;20555;-49
2023/05/20 05:49:32;;;;;;;2.65;1.50;;;;;;;10.73;100.00;102732.66;4930551;29;20206;-51
2023/05/20 05:51:58;;;;;;;2.83;1.40;;;;;;;10.71;100.00;102729.09;4950217;29;20619;-51
2023/05/20 05:54:24;;;;;;;4.70;1.35;;;;;;;10.84;100.00;102729.88;4931001;29;20233;-50
2023/05/20 05:56:52;;;;;;;4.05;1.33;;;;;;;10.96;100.00;102731.59;4939454;29;20224;-48
2023/05/20 05:59:18;;;;;;;5.63;1.83;;;;;;;11.03;100.00;102738.66;4938935;29;20176;-51
2023/05/20 06:01:44;;;;;;;8.13;1.65;;;;;;;11.28;100.00;102732.16;4921613;29;20220;-52
2023/05/20 06:04:09;;;;;;;4.68;1.60;;;;;;;11.54;100.00;102729.19;4933887;29;20242;-49
2023/05/20 06:06:35;;;;;;;3.22;1.60;;;;;;;11.64;100.00;102735.31;4932984;29;20629;-49
2023/05/20 06:09:01;;;;;;;5.05;1.30;;;;;;;11.95;100.00;102730.47;4933941;29;20309;-46
2023/05/20 06:11:28;;;;;;;6.50;2.08;;;;;;;11.61;100.00;102727.31;4933648;29;20191;-46
2023/05/20 06:13:53;;;;;;;2.28;1.65;;;;;;;11.72;100.00;102733.44;4948004;28;20214;-49
2023/05/20 06:16:19;;;;;;;4.85;1.83;;;;;;;12.02;100.00;102730.38;4931468;29;20544;-49
2023/05/20 06:18:45;;;;;;;3.47;1.48;;;;;;;11.96;100.00;102736.75;4929003;29;20206;-49
2023/05/20 06:21:12;;;;;;;4.18;1.70;;;;;;;12.36;100.00;102736.16;4933288;29;20717;-48
2023/05/20 06:23:37;;;;;;;4.32;1.90;;;;;;;12.12;99.85;102734.72;4933681;29;20332;-45
2023/05/20 06:26:05;;;;;;;5.35;2.08;;;;;;;12.28;99.69;102730.91;4933568;29;20193;-49
2023/05/20 06:28:31;;;;;;;2.92;1.40;;;;;;;12.98;98.71;102738.72;4918097;29;20554;-50
2023/05/20 06:30:56;;;;;;;3.58;1.55;;;;;;;12.78;96.99;102737.28;4929894;29;20291;-46
2023/05/20 06:33:24;;;;;;;4.40;1.50;;;;;;;12.98;95.75;102731.53;4933018;28;20214;-49
2023/05/20 06:35:52;;;;;;;4.57;1.92;;;;;;;13.13;94.30;102730.38;4915381;29;20193;-52
2023/05/20 06:38:18;;;;;;;4.83;1.77;;;;;;;12.98;92.94;102717.22;4926784;29;20435;-51
2023/05/20 06:40:45;;;;;;;3.55;1.60;;;;;;;12.74;92.81;102710.47;4933563;29;20182;-48
2023/05/20 06:43:10;;;;;;;5.20;1.63;;;;;;;13.04;93.06;102717.09;4930334;28;20198;-50
2023/05/20 06:45:47;;;;;;;5.47;1.70;;;;;;;13.46;92.51;102711.84;4940502;28;20198;-47
2023/05/20 06:48:22;;;;;;;3.47;1.65;;;;;;;13.48;91.13;102715.38;4935433;29;20210;-47
2023/05/20 06:50:48;;;;;;;1.95;1.27;;;;;;;13.81;90.20;102716.47;4946131;29;20234;-46
2023/05/20 06:53:13;;;;;;;5.85;1.60;;;;;;;13.62;89.33;102712.41;4951916;28;20582;-47
2023/05/20 06:55:39;;;;;;;6.20;1.63;;;;;;;14.14;88.51;102705.00;4931943;29;20669;-48
2023/05/20 06:58:05;;;;;;;4.25;1.50;;;;;;;14.08;87.59;102692.56;4936690;29;20264;-48
2023/05/20 07:00:31;;;;;;;3.28;1.50;;;;;;;13.71;87.63;102703.25;4936396;29;20648;-46
2023/05/20 07:02:56;;;;;;;4.63;1.70;;;;;;;13.99;87.42;102699.06;4929580;29;20194;-51
2023/05/20 07:05:23;;;;;;;3.00;1.67;;;;;;;13.80;86.80;102698.56;4945267;29;20207;-47
2023/05/20 07:07:49;;;;;;;5.45;1.92;;;;;;;13.70;87.45;102701.47;4950165;29;20218;-50
2023/05/20 07:10:14;;;;;;;4.90;1.90;;;;;;;14.05;87.45;102702.53;4936503;29;20190;-48
2023/05/20 07:12:41;;;;;;;4.07;1.83;;;;;;;13.98;86.86;102693.69;4946042;23;20230;-44
2023/05/20 07:15:07;;;;;;;4.65;1.58;;;;;;;14.29;87.04;102692.97;4958293;28;20241;-43
2023/05/20 07:17:33;;;;;;;3.33;1.58;;;;;;;14.31;85.95;102694.69;4950418;28;20229;-43
2023/05/20 07:19:59;;;;;;;4.78;1.70;;;;;;;14.82;85.92;102680.88;4953908;28;20249;-43
2023/05/20 07:22:25;;;;;;;4.47;1.60;;;;;;;14.92;85.26;102691.41;4948301;28;20183;-41
2023/05/20 07:25:09;;;;;;;4.00;1.65;;;;;;;14.85;83.48;102688.00;4964946;28;20237;-41
2023/05/20 07:27:36;;;;;;;5.07;1.95;;;;;;;14.75;83.15;102686.47;4945909;28;20198;-44
2023/05/20 07:30:02;;;;;;;5.35;1.65;;;;;;;14.45;82.96;102680.00;4965959;28;20198;-43
2023/05/20 07:32:29;;;;;;;4.00;1.73;;;;;;;14.56;83.00;102684.25;4950425;28;20190;-43
2023/05/20 07:34:54;;;;;;;2.72;1.73;;;;;;;14.41;83.60;102690.00;4961907;28;20209;-44
2023/05/20 07:37:20;;;;;;;7.70;1.92;;;;;;;14.35;83.59;102690.13;4929546;28;20212;-43
2023/05/20 07:39:45;;;;;;;8.57;1.95;;;;;;;14.49;83.46;102692.47;4960890;28;20182;-45
2023/05/20 07:42:11;;;;;;;4.78;2.42;;;;;;;14.71;83.48;102688.34;4951456;28;20194;-44
2023/05/20 07:44:40;;;;;;;10.70;1.95;;;;;;;14.42;83.21;102684.53;4936802;28;20224;-44
2023/05/20 07:47:06;;;;;;;5.07;2.10;;;;;;;14.58;82.81;102674.31;4946213;28;20190;-42
2023/05/20 07:49:32;;;;;;;3.50;1.85;;;;;;;14.85;82.81;102682.59;4951319;28;20678;-43
2023/05/20 07:51:58;;;;;;;4.90;1.92;;;;;;;14.87;82.36;102690.63;4952292;28;20293;-45
2023/05/20 07:54:23;;;;;;;3.05;1.90;;;;;;;14.83;82.10;102681.75;4961442;28;20699;-44
2023/05/20 07:56:51;;;;;;;7.55;2.28;;;;;;;14.83;80.96;102679.06;4950153;28;20279;-45
2023/05/20 07:59:17;;;;;;;3.75;2.00;;;;;;;14.96;80.28;102682.31;4945017;28;20187;-45
2023/05/20 08:01:46;;;;;;;4.97;2.20;;;;;;;15.43;79.69;102667.47;4929329;28;20679;-44
2023/05/20 08:04:14;;;;;;;4.18;2.05;;;;;;;15.18;79.81;102672.69;4950527;28;20190;-44
2023/05/20 08:06:42;;;;;;;5.45;2.00;;;;;;;15.55;78.74;102665.34;4955960;28;20248;-44
2023/05/20 08:09:11;;;;;;;5.22;2.15;;;;;;;15.49;78.06;102658.31;4951408;28;20210;-45
2023/05/20 08:11:40;;;;;;;3.15;2.00;;;;;;;15.58;78.10;102674.22;4947665;28;20544;-44
2023/05/20 08:14:06;;;;;;;4.07;2.08;;;;;;;15.20;77.74;102662.72;4961427;28;20304;-44
2023/05/20 08:16:37;;;;;;;3.10;2.00;;;;;;;15.10;77.82;102671.13;4966175;28;20183;-45
2023/05/20 08:19:03;;;;;;;5.32;2.00;;;;;;;15.06;78.42;102674.84;4972732;28;20608;-45
2023/05/20 08:21:28;;;;;;;4.10;2.13;;;;;;;15.03;79.00;102676.69;4954388;28;20186;-44
2023/05/20 08:23:54;;;;;;;2.78;1.70;;;;;;;15.06;79.18;102670.31;4961263;28;20596;-45
2023/05/20 08:26:20;;;;;;;3.00;1.73;;;;;;;14.74;79.11;102674.78;4967668;28;20253;-44
2023/05/20 08:28:47;;;;;;;8.50;2.08;;;;;;;15.00;79.42;102675.91;4967602;28;20917;-45
2023/05/20 08:31:16;;;;;;;7.03;2.38;;;;;;;14.81;80.20;102689.88;4959857;28;20196;-44
2023/05/20 08:33:42;;;;;;;6.70;2.10;;;;;;;14.87;79.89;102671.75;4946353;28;20211;-44
2023/05/20 08:36:08;;;;;;;5.22;2.10;;;;;;;14.90;79.53;102674.38;4968177;28;20232;-44
2023/05/20 08:38:33;;;;;;;5.22;1.88;;;;;;;15.22;78.79;102670.81;4958656;28;20199;-44
2023/05/20 08:40:59;;;;;;;4.15;1.90;;;;;;;15.46;78.01;102661.09;4959642;28;20210;-44
2023/05/20 08:43:25;;;;;;;4.38;1.90;;;;;;;15.14;77.20;102662.91;4961753;28;20206;-45
2023/05/20 08:45:51;;;;;;;5.32;1.90;;;;;;;14.97;76.65;102670.56;4970240;28;20552;-44
2023/05/20 08:48:19;;;;;;;4.78;1.88;;;;;;;14.93;75.58;102660.78;4958994;28;20217;-44
2023/05/20 08:50:51;;;;;;;4.05;1.70;;;;;;;15.12;75.48;102663.88;4957330;28;20712;-46
2023/05/20 08:53:21;;;;;;;6.00;1.63;;;;;;;15.49;74.65;102649.31;4955917;28;20206;-44
2023/05/20 08:56:01;;;;;;;6.15;2.30;;;;;;;15.37;74.36;102646.06;4963653;28;20198;-43
2023/05/20 08:58:31;;;;;;;7.80;1.85;;;;;;;15.77;74.43;102639.47;4963385;28;20260;-44
2023/05/20 09:00:57;;;;;;;3.08;1.40;;;;;;;15.33;72.90;102632.69;4960535;28;20284;-44
2023/05/20 09:03:24;;;;;;;1.92;1.45;;;;;;;15.15;72.81;102640.38;4960660;28;20244;-46
2023/05/20 09:05:51;;;;;;;4.70;1.80;;;;;;;15.54;72.55;102621.22;4960113;28;20706;-46
2023/05/20 09:08:16;;;;;;;3.90;1.67;;;;;;;15.62;72.50;102623.69;4962317;28;20215;-46
2023/05/20 09:10:42;;;;;;;2.55;1.50;;;;;;;15.66;71.95;102620.84;4957625;28;20186;-45
2023/05/20 09:13:09;;;;;;;4.90;1.48;;;;;;;15.74;70.27;102604.44;4959776;28;20280;-44
2023/05/20 09:15:35;;;;;;;1.95;1.33;;;;;;;15.32;70.65;102612.00;4969124;28;20196;-44
2023/05/20 09:18:06;;;;;;;4.07;1.38;;;;;;;15.95;70.42;102621.78;4965553;28;20207;-45
2023/05/20 09:20:34;;;;;;;4.55;1.30;;;;;;;15.84;69.31;102605.03;4957882;28;20688;-46
2023/05/20 09:23:01;;;;;;;3.10;1.50;;;;;;;15.84;69.18;102602.31;4955526;28;20197;-46
2023/05/20 09:25:28;;;;;;;2.55;1.60;;;;;;;15.92;69.78;102618.28;4959934;28;20258;-44
2023/05/20 09:27:54;;;;;;;7.38;1.55;;;;;;;16.19;69.64;102614.69;4963331;28;20190;-43
2023/05/20 09:30:20;;;;;;;1.85;1.30;;;;;;;15.88;68.21;102598.59;4963096;28;20264;-44
2023/05/20 09:32:59;;;;;;;2.08;1.27;;;;;;;15.67;67.85;102586.59;4965333;28;20193;-43
2023/05/20 09:35:26;;;;;;;4.07;1.20;;;;;;;15.90;68.13;102590.44;4967314;28;20193;-44
2023/05/20 09:37:56;;;;;;;2.17;1.23;;;;;;;15.70;67.08;102589.22;4957456;28;20193;-44
2023/05/20 09:40:28;;;;;;;2.15;1.10;;;;;;;16.01;65.99;102581.03;4958606;28;20194;-45
2023/05/20 09:42:58;;;;;;;2.60;1.15;;;;;;;16.10;65.45;102571.72;4936778;28;20281;-44
2023/05/20 09:45:24;;;;;;;2.30;1.00;;;;;;;15.94;64.85;102589.38;4957883;28;20558;-44
2023/05/20 09:47:51;;;;;;;3.58;1.35;;;;;;;15.97;64.59;102579.38;4963640;28;20207;-46
2023/05/20 09:50:20;;;;;;;4.22;1.30;;;;;;;16.02;64.21;102550.34;4958885;28;20194;-45
2023/05/20 09:52:47;;;;;;;3.28;1.30;;;;;;;16.37;63.66;102558.19;4956149;28;20302;-45
2023/05/20 09:55:14;;;;;;;2.20;1.20;;;;;;;15.78;63.27;102554.75;4960758;28;20201;-43
2023/05/20 09:57:39;;;;;;;2.70;1.30;;;;;;;15.63;63.74;102568.72;4959522;28;20203;-44
2023/05/20 10:00:07;;;;;;;2.55;1.33;;;;;;;15.23;64.25;102560.03;4959786;28;20306;-44
2023/05/20 10:02:41;;;;;;;2.58;1.38;;;;;;;15.29;64.99;102569.78;4966139;28;20688;-45
2023/05/20 10:05:15;;;;;;;3.17;1.10;;;;;;;15.14;65.73;102557.59;4958446;28;20209;-44
2023/05/20 10:07:59;;;;;;;3.92;1.50;;;;;;;15.49;64.85;102566.44;4962062;28;20272;-43
2023/05/20 10:10:49;;;;;;;1.58;1.38;;;;;;;15.44;64.47;102546.81;4958170;28;20563;-43
2023/05/20 10:13:57;;;;;;;2.03;1.40;;;;;;;15.82;64.24;102544.72;4959349;28;20214;-44
2023/05/20 10:16:51;;;;;;;1.42;1.10;;;;;;;16.10;64.92;102560.03;4937308;28;20290;-44
2023/05/20 10:19:30;;;;;;;5.38;1.30;;;;;;;15.97;63.88;102555.03;4963513;28;20218;-44
2023/05/20 10:22:00;;;;;;;1.45;1.13;;;;;;;15.98;63.97;102548.72;4970403;28;20198;-44
2023/05/20 10:24:33;;;;;;;2.53;1.40;;;;;;;15.81;64.79;102557.38;4961929;28;20198;-45
2023/05/20 10:27:01;;;;;;;2.25;1.33;;;;;;;15.10;65.38;102558.63;4957819;28;20201;-44
2023/05/20 10:29:27;;;;;;;2.05;1.10;;;;;;;15.86;65.44;102570.72;4964834;28;20190;-44
2023/05/20 10:31:53;;;;;;;1.63;1.10;;;;;;;15.98;64.72;102555.91;4963816;28;20242;-45
2023/05/20 10:34:20;;;;;;;3.22;1.20;;;;;;;15.43;64.17;102529.69;4965139;28;20566;-45
2023/05/20 10:36:57;;;;;;;3.65;1.20;;;;;;;15.76;63.82;102528.72;4966146;28;20181;-44
2023/05/20 10:39:32;;;;;;;2.83;1.42;;;;;;;15.78;64.83;102541.22;4966100;28;20210;-44
2023/05/20 10:42:06;;;;;;;3.83;1.40;;;;;;;15.81;64.57;102530.34;4969349;28;20185;-43
2023/05/20 10:44:41;;;;;;;3.40;1.50;;;;;;;15.57;64.51;102534.69;4960607;28;20573;-44
2023/05/20 10:47:07;;;;;;;2.72;1.30;;;;;;;15.59;64.34;102516.59;4959004;28;20601;-43
2023/05/20 10:49:34;;;;;;;3.45;1.42;;;;;;;15.45;64.76;102521.56;4964594;28;20209;-44
2023/05/20 10:52:00;;;;;;;6.05;2.15;;;;;;;15.61;64.84;102530.97;4960328;28;20187;-44
2023/05/20 10:54:25;;;;;;;2.47;1.30;;;;;;;15.58;65.11;102528.34;4963975;28;20740;-44
2023/05/20 10:56:52;;;;;;;6.32;1.67;;;;;;;15.61;65.24;102522.84;4963123;28;20175;-44
2023/05/20 10:59:20;;;;;;;2.65;1.48;;;;;;;15.60;65.89;102534.56;4955449;28;20224;-46
2023/05/20 11:01:45;;;;;;;2.95;1.48;;;;;;;15.81;65.73;102545.69;4952371;28;20190;-43
2023/05/20 11:04:13;;;;;;;3.72;1.40;;;;;;;15.91;64.96;102530.91;4967235;28;20212;-44
2023/05/20 11:06:49;;;;;;;5.00;1.77;;;;;;;15.78;65.57;102526.84;4969816;28;20194;-44
2023/05/20 11:09:15;;;;;;;4.82;1.70;;;;;;;15.55;65.06;102517.63;4971909;28;20244;-44
2023/05/20 11:11:40;;;;;;;3.90;1.77;;;;;;;15.34;66.04;102515.59;4965538;28;20555;-45
2023/05/20 11:14:06;;;;;;;7.43;1.95;;;;;;;15.53;66.47;102526.72;4959151;28;20215;-44
2023/05/20 11:16:32;;;;;;;5.22;1.73;;;;;;;15.39;66.91;102519.03;4958477;28;20182;-44
2023/05/20 11:18:57;;;;;;;5.85;1.77;;;;;;;15.20;67.40;102516.06;4956048;28;20197;-45
2023/05/20 11:21:23;;;;;;;3.50;1.70;;;;;;;15.18;67.36;102507.09;4966682;28;20250;-46
2023/05/20 11:23:50;;;;;;;4.10;2.20;;;;;;;15.10;67.60;102519.94;4962337;28;20406;-43
2023/05/20 11:26:16;;;;;;;2.78;2.00;;;;;;;15.05;67.16;102509.28;4957843;28;20185;-46